createdAt,value
2022-09-07T00:02:00.690Z,28.33
2022-09-07T00:04:30.161Z,29.02
2022-09-07T00:06:59.570Z,29.30
2022-09-07T00:09:30.506Z,29.75
2022-09-07T00:11:59.803Z,28.75
2022-09-07T00:14:29.085Z,125.50
2022-09-07T00:16:58.375Z,29.73
2022-09-07T00:19:30.805Z,33.25
2022-09-07T00:22:00.088Z,31.13
2022-09-07T00:24:32.535Z,39.65
2022-09-07T00:27:01.880Z,39.33
2022-09-07T00:29:31.260Z,29.95
2022-09-07T00:32:00.498Z,27.73
2022-09-07T00:34:29.815Z,26.45
2022-09-07T00:36:59.025Z,25.20
2022-09-07T00:39:30.125Z,24.95
2022-09-07T00:41:59.493Z,25.45
2022-09-07T00:45:04.208Z,25.35
2022-09-07T00:47:39.906Z,24.75
2022-09-07T00:52:42.959Z,26.52
2022-09-07T00:55:18.748Z,26.73
2022-09-07T01:00:19.529Z,28.13
2022-09-07T01:02:50.855Z,28.05
2022-09-07T01:05:26.449Z,27.05
2022-09-07T01:07:56.754Z,27.35
2022-09-07T01:10:32.336Z,27.42
2022-09-07T01:13:01.982Z,26.73
2022-09-07T01:15:41.468Z,21.50
2022-09-07T01:18:17.262Z,19.38
2022-09-07T01:21:02.182Z,22.33
2022-09-07T01:23:59.531Z,19.92
2022-09-07T01:27:13.669Z,16.63
2022-09-07T01:29:54.658Z,14.88
2022-09-07T01:32:33.275Z,12.35
2022-09-07T01:35:07.241Z,11.77
2022-09-07T01:37:55.033Z,13.35
2022-09-07T01:40:36.479Z,15.23
2022-09-07T01:43:11.965Z,19.00
2022-09-07T01:45:46.674Z,19.02
2022-09-07T01:48:20.820Z,16.17
2022-09-07T01:50:54.402Z,13.50
2022-09-07T01:53:30.095Z,13.32
2022-09-07T01:58:34.553Z,9.40
2022-09-07T02:01:09.955Z,9.40
2022-09-07T02:03:46.879Z,8.77
2022-09-07T02:06:22.039Z,7.50
2022-09-07T02:08:56.728Z,7.70
2022-09-07T02:11:32.932Z,8.87
2022-09-07T02:14:07.017Z,8.80
2022-09-07T02:16:46.151Z,9.43
2022-09-07T02:19:19.700Z,10.18
2022-09-07T02:21:53.592Z,9.57
2022-09-07T02:24:27.721Z,9.57
2022-09-07T02:27:00.706Z,8.68
2022-09-07T02:29:31.096Z,7.88
2022-09-07T02:32:02.244Z,7.57
2022-09-07T02:34:33.402Z,9.90
2022-09-07T02:37:05.153Z,11.85
2022-09-07T02:39:35.355Z,10.10
2022-09-07T02:42:04.752Z,12.07
2022-09-07T02:44:55.752Z,11.75
2022-09-07T02:52:03.783Z,10.43
2022-09-07T02:54:49.558Z,8.57
2022-09-07T02:57:29.355Z,8.80
2022-09-07T03:00:26.655Z,8.63
2022-09-07T03:03:19.614Z,8.52
2022-09-07T03:05:56.989Z,7.50
2022-09-07T03:08:32.231Z,7.72
2022-09-07T03:11:02.691Z,8.10
2022-09-07T03:13:33.321Z,8.27
2022-09-07T03:16:02.749Z,7.82
2022-09-07T03:18:33.889Z,10.43
2022-09-07T03:21:06.498Z,8.15
2022-09-07T03:23:39.043Z,8.65
2022-09-07T03:26:10.528Z,8.02
2022-09-07T03:28:39.791Z,8.70
2022-09-07T03:31:09.095Z,9.20
2022-09-07T03:33:39.919Z,9.02
2022-09-07T03:36:09.460Z,8.18
2022-09-07T03:38:38.749Z,9.30
2022-09-07T03:41:10.215Z,8.43
2022-09-07T03:43:39.492Z,9.02
2022-09-07T03:46:10.860Z,8.88
2022-09-07T03:48:41.669Z,8.57
2022-09-07T03:51:12.964Z,9.07
2022-09-07T03:53:44.261Z,8.48
2022-09-07T03:56:15.124Z,8.75
2022-09-07T03:58:44.447Z,8.27
2022-09-07T04:01:17.520Z,8.93
2022-09-07T04:03:49.174Z,9.13
2022-09-07T04:06:19.202Z,10.13
2022-09-07T04:08:48.511Z,9.75
2022-09-07T04:11:20.047Z,9.57
2022-09-07T04:13:49.430Z,10.07
2022-09-07T04:16:21.108Z,9.18
2022-09-07T04:18:55.165Z,8.65
2022-09-07T04:21:25.413Z,10.27
2022-09-07T04:23:55.270Z,10.38
2022-09-07T04:26:26.086Z,11.80
2022-09-07T04:28:56.157Z,10.93
2022-09-07T04:31:26.048Z,9.88
2022-09-07T04:33:57.370Z,10.93
2022-09-07T04:36:28.615Z,9.65
2022-09-07T04:38:58.667Z,10.65
2022-09-07T04:41:28.964Z,10.40
2022-09-07T04:43:59.918Z,9.63
2022-09-07T04:46:30.825Z,9.07
2022-09-07T04:49:03.178Z,9.70
2022-09-07T04:51:34.001Z,9.43
2022-09-07T04:54:04.442Z,10.77
2022-09-07T04:56:34.167Z,9.65
2022-09-07T04:59:04.084Z,9.85
2022-09-07T05:01:33.453Z,10.45
2022-09-07T05:04:05.469Z,9.40
2022-09-07T05:06:34.862Z,10.30
2022-09-07T05:09:04.242Z,10.02
2022-09-07T05:11:35.074Z,9.50
2022-09-07T05:14:05.447Z,10.38
2022-09-07T05:16:34.798Z,10.55
2022-09-07T05:19:07.434Z,11.32
2022-09-07T05:21:37.473Z,10.48
2022-09-07T05:24:07.639Z,11.05
2022-09-07T05:26:40.222Z,10.55
2022-09-07T05:31:59.490Z,11.05
2022-09-07T05:34:30.761Z,10.85
2022-09-07T05:37:00.772Z,11.80
2022-09-07T05:39:30.331Z,11.32
2022-09-07T05:41:59.690Z,11.57
2022-09-07T05:44:45.059Z,12.57
2022-09-07T05:47:15.318Z,12.90
2022-09-07T05:49:46.099Z,14.90
2022-09-07T05:52:15.404Z,16.80
2022-09-07T05:54:44.622Z,16.05
2022-09-07T05:57:14.294Z,15.20
2022-09-07T05:59:44.607Z,13.20
2022-09-07T06:02:16.377Z,12.23
2022-09-07T06:04:48.050Z,11.80
2022-09-07T06:07:22.170Z,12.15
2022-09-07T06:12:44.409Z,12.68
2022-09-07T06:15:18.185Z,12.50
2022-09-07T06:17:47.627Z,12.98
2022-09-07T06:20:19.761Z,13.00
2022-09-07T06:22:49.045Z,14.07
2022-09-07T06:25:18.523Z,14.30
2022-09-07T06:27:50.471Z,13.95
2022-09-07T06:30:19.931Z,13.60
2022-09-07T06:32:49.722Z,14.60
2022-09-07T06:35:20.595Z,14.05
2022-09-07T06:37:49.909Z,14.38
2022-09-07T06:40:20.312Z,14.32
2022-09-07T06:42:50.675Z,13.68
2022-09-07T06:45:20.021Z,14.80
2022-09-07T06:47:49.386Z,14.50
2022-09-07T06:50:20.280Z,14.52
2022-09-07T06:55:45.735Z,13.10
2022-09-07T06:58:15.043Z,13.57
2022-09-07T07:00:44.462Z,13.25
2022-09-07T07:03:15.391Z,13.13
2022-09-07T07:06:15.934Z,14.50
2022-09-07T07:08:47.974Z,14.82
2022-09-07T07:11:18.197Z,16.35
2022-09-07T07:13:47.688Z,15.32
2022-09-07T07:16:19.169Z,17.17
2022-09-07T07:18:52.849Z,15.52
2022-09-07T07:21:48.570Z,16.02
2022-09-07T07:24:21.147Z,17.30
2022-09-07T07:26:53.036Z,16.40
2022-09-07T07:29:27.971Z,16.20
2022-09-07T07:31:58.476Z,17.63
2022-09-07T07:34:27.902Z,17.17
2022-09-07T07:36:58.879Z,18.15
2022-09-07T07:42:17.695Z,18.13
2022-09-07T07:44:47.349Z,18.58
2022-09-07T07:47:18.883Z,19.13
2022-09-07T07:50:30.460Z,19.58
2022-09-07T07:52:50.272Z,19.73
2022-09-07T07:58:09.062Z,19.83
2022-09-07T08:00:53.888Z,20.20
2022-09-07T08:03:26.885Z,19.17
2022-09-07T08:05:56.817Z,17.95
2022-09-07T08:08:28.422Z,17.45
2022-09-07T08:10:57.737Z,17.08
2022-09-07T08:13:27.023Z,18.02
2022-09-07T08:16:03.245Z,17.45
2022-09-07T08:18:32.664Z,17.25
2022-09-07T08:21:02.714Z,13.52
2022-09-07T08:23:34.203Z,15.48
2022-09-07T08:26:03.846Z,13.20
2022-09-07T08:28:34.902Z,11.38
2022-09-07T08:31:07.784Z,10.30
2022-09-07T08:33:38.211Z,9.73
2022-09-07T08:36:10.271Z,9.52
2022-09-07T08:38:41.580Z,10.32
2022-09-07T08:41:35.441Z,10.38
2022-09-07T08:44:07.116Z,11.45
2022-09-07T08:46:42.904Z,10.95
2022-09-07T08:49:20.908Z,10.88
2022-09-07T08:51:55.425Z,10.80
2022-09-07T08:54:29.121Z,12.77
2022-09-07T09:00:00.877Z,9.93
2022-09-07T09:02:38.322Z,10.23
2022-09-07T09:05:36.806Z,9.57
2022-09-07T09:08:23.143Z,10.82
2022-09-07T09:11:02.222Z,11.32
2022-09-07T09:13:43.904Z,10.40
2022-09-07T09:16:20.503Z,11.18
2022-09-07T09:19:03.127Z,10.65
2022-09-07T09:21:32.581Z,10.70
2022-09-07T09:24:24.982Z,10.25
2022-09-07T09:27:07.224Z,9.77
2022-09-07T09:29:36.633Z,8.98
2022-09-07T09:32:36.780Z,9.23
2022-09-07T09:35:17.758Z,9.50
2022-09-07T09:37:49.418Z,9.38
2022-09-07T09:40:32.536Z,10.82
2022-09-07T09:43:09.411Z,9.10
2022-09-07T09:48:40.507Z,9.40
2022-09-07T09:54:06.345Z,10.52
2022-09-07T09:56:41.611Z,10.20
2022-09-07T10:05:29.176Z,9.02
2022-09-07T10:07:58.994Z,10.48
2022-09-07T10:10:30.009Z,10.98
2022-09-07T10:13:00.103Z,9.57
2022-09-07T10:15:40.416Z,9.07
2022-09-07T10:18:21.782Z,9.57
2022-09-07T10:20:55.812Z,9.18
2022-09-07T10:23:29.719Z,9.02
2022-09-07T10:25:59.138Z,9.63
2022-09-07T10:29:06.320Z,9.38
2022-09-07T10:31:26.295Z,9.63
2022-09-07T10:37:02.888Z,9.10
2022-09-07T10:39:41.972Z,8.30
2022-09-07T10:42:29.487Z,9.88
2022-09-07T10:45:13.468Z,9.68
2022-09-07T10:47:57.374Z,9.35
2022-09-07T10:50:33.099Z,9.53
2022-09-07T10:53:40.656Z,9.25
2022-09-07T10:56:15.085Z,8.77
2022-09-07T10:59:02.786Z,9.10
2022-09-07T11:01:44.802Z,9.25
2022-09-07T11:04:34.947Z,9.35
2022-09-07T11:07:15.768Z,9.70
2022-09-07T11:10:01.451Z,9.63
2022-09-07T11:12:35.500Z,10.02
2022-09-07T11:15:16.250Z,10.85
2022-09-07T11:17:53.242Z,9.98
2022-09-07T11:20:31.600Z,10.68
2022-09-07T11:23:11.342Z,9.73
2022-09-07T11:25:48.028Z,22.20
2022-09-07T11:28:23.019Z,10.23
2022-09-07T11:31:00.281Z,10.02
2022-09-07T11:33:36.319Z,9.48
2022-09-07T11:36:13.309Z,9.75
2022-09-07T11:38:46.715Z,9.75
2022-09-07T11:41:23.963Z,11.13
2022-09-07T11:44:02.733Z,12.43
2022-09-07T11:46:38.111Z,12.93
2022-09-07T11:49:20.047Z,11.75
2022-09-07T11:51:55.386Z,11.13
2022-09-07T11:54:49.240Z,11.75
2022-09-07T11:57:38.662Z,11.02
2022-09-07T12:00:14.349Z,11.15
2022-09-07T12:03:12.700Z,12.43
2022-09-07T12:06:13.045Z,10.30
2022-09-07T12:08:58.869Z,9.75
2022-09-07T12:11:56.174Z,10.48
2022-09-07T12:14:37.869Z,11.20
2022-09-07T12:17:23.462Z,12.15
2022-09-07T12:20:15.866Z,10.75
2022-09-07T12:23:03.717Z,10.88
2022-09-07T12:25:36.122Z,10.25
2022-09-07T12:28:05.627Z,9.13
2022-09-07T12:30:59.259Z,10.68
2022-09-07T12:33:38.678Z,10.30
2022-09-07T12:36:51.661Z,9.77
2022-09-07T12:39:25.680Z,9.30
2022-09-07T12:42:32.929Z,9.02
2022-09-07T12:45:35.569Z,9.15
2022-09-07T12:48:12.820Z,8.98
2022-09-07T12:50:51.862Z,44.50
2022-09-07T12:53:32.621Z,8.20
2022-09-07T12:56:27.454Z,7.68
2022-09-07T12:59:20.260Z,6.10
2022-09-07T13:02:01.384Z,6.80
2022-09-07T13:04:52.825Z,5.72
2022-09-07T13:07:42.083Z,5.28
2022-09-07T13:10:30.892Z,5.55
2022-09-07T13:13:05.663Z,5.38
2022-09-07T13:15:42.715Z,6.80
2022-09-07T13:18:15.678Z,6.95
2022-09-07T13:20:45.144Z,6.57
2022-09-07T13:23:31.996Z,5.20
2022-09-07T13:26:02.606Z,5.50
2022-09-07T13:28:42.103Z,5.90
2022-09-07T13:31:28.895Z,5.57
2022-09-07T13:34:19.011Z,5.20
2022-09-07T13:36:50.456Z,5.22
2022-09-07T13:39:23.517Z,5.43
2022-09-07T13:41:59.393Z,6.20
2022-09-07T13:44:33.024Z,6.13
2022-09-07T13:47:19.486Z,5.90
2022-09-07T13:50:19.994Z,6.13
2022-09-07T13:53:15.208Z,6.40
2022-09-07T13:55:52.617Z,5.55
2022-09-07T13:58:27.816Z,5.70
2022-09-07T14:03:30.563Z,5.47
2022-09-07T14:06:29.092Z,5.30
2022-09-07T14:09:00.054Z,4.18
2022-09-07T14:11:31.364Z,3.97
2022-09-07T14:14:18.780Z,4.05
2022-09-07T14:16:51.213Z,3.92
2022-09-07T14:19:26.499Z,4.53
2022-09-07T14:24:32.917Z,17.52
2022-09-07T14:27:02.539Z,4.57
2022-09-07T14:29:33.345Z,3.78
2022-09-07T14:32:05.487Z,3.83
2022-09-07T14:34:45.168Z,4.82
2022-09-07T14:37:17.041Z,3.92
2022-09-07T14:39:51.111Z,3.40
2022-09-07T14:42:23.850Z,3.35
2022-09-07T14:45:13.561Z,4.03
2022-09-07T14:47:42.868Z,3.60
2022-09-07T14:50:22.286Z,3.83
2022-09-07T14:55:44.570Z,4.05
2022-09-07T14:58:24.307Z,4.03
2022-09-07T15:03:56.673Z,4.97
2022-09-07T15:07:06.091Z,6.00
2022-09-07T15:09:38.401Z,4.90
2022-09-07T15:12:27.229Z,5.07
2022-09-07T15:15:12.997Z,5.00
2022-09-07T15:17:43.795Z,5.43
2022-09-07T15:20:37.162Z,5.60
2022-09-07T15:23:11.182Z,5.00
2022-09-07T15:25:41.225Z,6.45
2022-09-07T15:31:56.779Z,6.28
2022-09-07T15:34:31.326Z,6.53
2022-09-07T15:37:02.672Z,7.18
2022-09-07T15:39:36.055Z,6.22
2022-09-07T15:44:54.904Z,6.10
2022-09-07T15:50:13.988Z,6.05
2022-09-07T15:52:46.214Z,5.72
2022-09-07T15:55:18.276Z,5.93
2022-09-07T15:57:51.248Z,6.15
2022-09-07T16:00:22.287Z,6.37
2022-09-07T16:03:08.495Z,6.10
2022-09-07T16:05:41.345Z,5.57
2022-09-07T16:08:25.976Z,5.97
2022-09-07T16:11:05.762Z,5.10
2022-09-07T16:13:35.608Z,5.63
2022-09-07T16:16:08.335Z,4.28
2022-09-07T16:18:38.249Z,4.82
2022-09-07T16:21:11.872Z,4.13
2022-09-07T16:23:43.337Z,4.00
2022-09-07T16:26:14.360Z,4.07
2022-09-07T16:28:44.819Z,3.53
2022-09-07T16:31:17.044Z,4.20
2022-09-07T16:33:46.370Z,3.80
2022-09-07T16:36:17.716Z,3.80
2022-09-07T16:38:48.945Z,4.00
2022-09-07T16:41:21.738Z,3.85
2022-09-07T16:43:50.949Z,3.78
2022-09-07T16:46:21.570Z,3.45
2022-09-07T16:48:51.971Z,3.88
2022-09-07T16:51:23.188Z,3.80
2022-09-07T16:53:53.910Z,3.75
2022-09-07T16:56:27.160Z,4.47
2022-09-07T16:58:58.233Z,4.25
2022-09-07T17:01:29.291Z,5.07
2022-09-07T17:03:58.718Z,4.03
2022-09-07T17:06:29.871Z,4.07
2022-09-07T17:09:00.561Z,4.32
2022-09-07T17:11:33.153Z,4.00
2022-09-07T17:14:05.475Z,3.53
2022-09-07T17:16:36.826Z,3.10
2022-09-07T17:21:57.730Z,4.13
2022-09-07T17:24:26.986Z,4.10
2022-09-07T17:26:59.507Z,3.72
2022-09-07T17:29:30.823Z,3.58
2022-09-07T17:34:51.350Z,3.40
2022-09-07T17:37:20.856Z,2.92
2022-09-07T17:39:50.032Z,3.13
2022-09-07T17:42:20.870Z,2.58
2022-09-07T17:44:53.934Z,3.60
2022-09-07T17:47:23.423Z,3.28
2022-09-07T17:49:52.504Z,3.00
2022-09-07T17:52:21.639Z,3.45
2022-09-07T17:54:50.817Z,3.22
2022-09-07T17:57:21.592Z,3.15
2022-09-07T18:02:40.101Z,3.20
2022-09-07T18:05:10.759Z,3.45
2022-09-07T18:07:40.003Z,3.28
2022-09-07T18:10:09.911Z,4.38
2022-09-07T18:12:40.616Z,3.53
2022-09-07T18:15:10.503Z,3.92
2022-09-07T18:17:39.907Z,3.50
2022-09-07T18:20:09.887Z,3.75
2022-09-07T18:22:39.130Z,3.30
2022-09-07T18:25:10.326Z,3.30
2022-09-07T18:27:42.332Z,3.40
2022-09-07T18:30:12.649Z,3.45
2022-09-07T18:32:41.950Z,3.28
2022-09-07T18:35:11.757Z,3.15
2022-09-07T18:37:40.903Z,3.83
2022-09-07T18:40:10.978Z,3.53
2022-09-07T18:42:42.390Z,3.20
2022-09-07T18:45:27.903Z,3.53
2022-09-07T18:47:57.294Z,3.33
2022-09-07T18:50:27.267Z,3.78
2022-09-07T18:53:04.120Z,3.83
2022-09-07T18:55:36.655Z,3.95
2022-09-07T18:58:07.303Z,4.03
2022-09-07T19:00:36.587Z,4.10
2022-09-07T19:03:05.874Z,4.60
2022-09-07T19:05:50.927Z,4.93
2022-09-07T19:10:50.790Z,4.53
2022-09-07T19:13:21.493Z,4.75
2022-09-07T19:15:51.642Z,4.80
2022-09-07T19:18:20.758Z,5.07
2022-09-07T19:20:49.955Z,5.30
2022-09-07T19:23:19.042Z,5.45
2022-09-07T19:25:48.430Z,5.35
2022-09-07T19:28:19.561Z,5.20
2022-09-07T19:30:50.202Z,5.30
2022-09-07T19:33:19.566Z,5.20
2022-09-07T19:35:48.742Z,3.63
2022-09-07T19:38:18.864Z,4.50
2022-09-07T19:40:57.862Z,5.15
2022-09-07T19:43:27.807Z,5.55
2022-09-07T19:45:59.828Z,4.10
2022-09-07T19:48:29.483Z,4.47
2022-09-07T19:51:03.990Z,4.97
2022-09-07T19:53:34.634Z,5.03
2022-09-07T19:56:08.880Z,4.80
2022-09-07T19:58:40.989Z,4.18
2022-09-07T20:01:14.256Z,3.75
2022-09-07T20:03:44.267Z,4.15
2022-09-07T20:06:15.591Z,4.30
2022-09-07T20:08:45.454Z,3.88
2022-09-07T20:11:17.507Z,3.58
2022-09-07T20:13:47.093Z,4.00
2022-09-07T20:16:19.916Z,4.53
2022-09-07T20:18:49.588Z,3.50
2022-09-07T20:21:20.784Z,2.70
2022-09-07T20:23:50.266Z,2.78
2022-09-07T20:26:21.437Z,2.63
2022-09-07T20:29:16.374Z,2.85
2022-09-07T20:31:46.329Z,2.63
2022-09-07T20:34:15.705Z,2.72
2022-09-07T20:36:44.868Z,2.30
2022-09-07T20:39:17.321Z,2.40
2022-09-07T20:41:46.686Z,1.80
2022-09-07T20:44:16.721Z,1.92
2022-09-07T20:46:47.457Z,1.80
2022-09-07T20:49:16.731Z,2.20
2022-09-07T20:51:45.863Z,3.15
2022-09-07T20:54:14.987Z,3.85
2022-09-07T20:56:44.184Z,2.40
2022-09-07T20:59:13.933Z,1.73
2022-09-07T21:01:44.177Z,2.70
2022-09-07T21:04:14.971Z,1.58
2022-09-07T21:06:44.101Z,2.10
2022-09-07T21:09:13.193Z,1.83
2022-09-07T21:11:45.093Z,1.55
2022-09-07T21:14:18.210Z,1.35
2022-09-07T21:16:47.704Z,1.70
2022-09-07T21:19:18.322Z,1.60
2022-09-07T21:21:48.108Z,1.80
2022-09-07T21:24:19.517Z,1.30
2022-09-07T21:26:49.505Z,1.50
2022-09-07T21:29:20.103Z,1.95
2022-09-07T21:31:49.895Z,1.38
2022-09-07T21:34:20.621Z,1.20
2022-09-07T21:36:50.273Z,0.80
2022-09-07T21:39:19.818Z,0.95
2022-09-07T21:41:49.015Z,1.80
2022-09-07T21:44:18.580Z,0.90
2022-09-07T21:46:47.844Z,1.00
2022-09-07T21:49:17.116Z,0.90
2022-09-07T21:51:47.749Z,0.70
2022-09-07T21:54:16.890Z,0.95
2022-09-07T21:56:46.945Z,0.90
2022-09-07T21:59:16.306Z,0.73
2022-09-07T22:01:45.563Z,0.77
2022-09-07T22:04:15.276Z,0.80
2022-09-07T22:06:44.630Z,0.52
2022-09-07T22:09:16.235Z,0.82
2022-09-07T22:11:46.203Z,1.23
2022-09-07T22:14:17.117Z,0.65
2022-09-07T22:16:46.436Z,0.60
2022-09-07T22:19:15.590Z,0.65
2022-09-07T22:21:44.936Z,0.73
2022-09-07T22:24:16.230Z,0.80
2022-09-07T22:26:45.393Z,0.80
2022-09-07T22:29:15.101Z,1.10
2022-09-07T22:31:44.333Z,1.00
2022-09-07T22:34:13.572Z,1.10
2022-09-07T22:36:45.273Z,1.35
2022-09-07T22:39:18.873Z,0.80
2022-09-07T22:41:49.268Z,1.75
2022-09-07T22:44:20.311Z,0.85
2022-09-07T22:46:49.777Z,2.08
2022-09-07T22:49:19.062Z,0.70
2022-09-07T22:51:48.418Z,0.57
2022-09-07T22:54:19.082Z,0.75
2022-09-07T22:56:48.430Z,0.68
2022-09-07T22:59:17.644Z,0.50
2022-09-07T23:01:47.445Z,0.70
2022-09-07T23:04:16.717Z,0.47
2022-09-07T23:06:46.035Z,0.60
2022-09-07T23:09:17.262Z,0.60
2022-09-07T23:11:49.125Z,0.50
2022-09-07T23:14:19.776Z,0.70
2022-09-07T23:16:49.111Z,0.70
2022-09-07T23:19:20.085Z,0.90
2022-09-07T23:21:49.514Z,0.80
2022-09-07T23:24:20.406Z,0.77
2022-09-07T23:26:51.325Z,0.63
2022-09-07T23:29:21.588Z,0.90
2022-09-07T23:31:50.815Z,1.65
2022-09-07T23:34:20.094Z,0.90
2022-09-07T23:36:49.394Z,0.85
2022-09-07T23:39:19.152Z,1.10
2022-09-07T23:41:48.328Z,0.80
2022-09-07T23:44:19.024Z,4.20
2022-09-07T23:46:49.285Z,1.20
2022-09-07T23:49:18.511Z,1.40
2022-09-07T23:51:48.808Z,1.10
2022-09-07T23:54:18.031Z,1.20
2022-09-07T23:56:47.228Z,1.00
2022-09-07T23:59:16.389Z,1.10
